AQQ10 IFIS: Internet Flight Information System
logo dgac
Viernes 01 de Julio del 2022

Metar

Buscar por aerodromo o helipuerto
Ingrese nombre de aeródromo, localidad o designador OACI:


SPECI del 01-07-2022 a las 13:36 UTC
Para mayor información visite www.meteochile.cl
SPECI SCTE 011336Z VRB02KT 9999 -RA SCT020 SCT030 OVC120 05/05 Q1005 NOSIG
Viento: dirección variable, velocidad 2 nudos
Visibilidad: 10 km o más
Débil Lluvia
Nubes: Nubosidad parcial a 2000 pies sobre el nivel del aeródromo
Nubes: Nubosidad parcial a 3000 pies sobre el nivel del aeródromo
Nubes: Cubierto a 12000 pies sobre el nivel del aeródromo
Temperatura: 5 °C
Rocío: 5 °C
Humedad_relativa: 100%
Presión: 1005 hPa
No se esperan cambios significativos en las próximas 2 horas
SPECI del 01-07-2022 a las 13:03 UTC
Para mayor información visite www.meteochile.cl
SPECI SCIE 011303Z 26012KT 9999 FEW015 BKN025 11/07 Q1012
Viento: dirección 260 grados, velocidad 12 nudos
Visibilidad: 10 km o más
Nubes: Escasa nubosidad a 1500 pies sobre el nivel del aeródromo
Nubes: Nublado a 2500 pies sobre el nivel del aeródromo
Temperatura: 11 °C
Rocío: 7 °C
Humedad_relativa: 76%
Presión: 1012 hPa
METAR del 01-07-2022 a las 13:00 UTC
Para mayor información visite www.meteochile.cl
METAR SCIP 011300Z VRB02KT 9999 SCT020 BKN040 17/16 Q1026 NOSIG
Viento: dirección variable, velocidad 2 nudos
Visibilidad: 10 km o más
Nubes: Nubosidad parcial a 2000 pies sobre el nivel del aeródromo
Nubes: Nublado a 4000 pies sobre el nivel del aeródromo
Temperatura: 17 °C
Rocío: 16 °C
Humedad_relativa: 94%
Presión: 1026 hPa
No se esperan cambios significativos en las próximas 2 horas
METAR del 01-07-2022 a las 13:00 UTC
Para mayor información visite www.meteochile.cl
METAR SCCH 011300Z 03005KT 7000 SCT010 BKN070 08/07 Q1012
Viento: dirección 030 grados, velocidad 5 nudos
Visibilidad: 7000 metros
Nubes: Nubosidad parcial a 1000 pies sobre el nivel del aeródromo
Nubes: Nublado a 7000 pies sobre el nivel del aeródromo
Temperatura: 8 °C
Rocío: 7 °C
Humedad_relativa: 93%
Presión: 1012 hPa
METAR del 01-07-2022 a las 13:00 UTC
Para mayor información visite www.meteochile.cl
METAR SCNT 011300Z 32003KT 250V350 CAVOK M07/M09 Q1000
Viento: dirección 320 grados, velocidad 3 nudos
Viento con dirección variable entre 250 y 350 grados
Visibilidad: 10 km o más,
    sin nubes bajo los 5.000 pies o bajo del MSA (Mínimo de Seguridad del Aeródromo),
    sin cumulonimbus, y sin fenómenos de tiempo significativo en el aeródromo o alrededores
Temperatura: -7 °C
Rocío: -9 °C
Humedad_relativa: 86%
Presión: 1000 hPa
METAR del 01-07-2022 a las 13:00 UTC
Para mayor información visite www.meteochile.cl
METAR SCGE 011300Z 36008KT 9999 BKN018 08/07 Q1010
Viento: dirección 360 grados, velocidad 8 nudos
Visibilidad: 10 km o más
Nubes: Nublado a 1800 pies sobre el nivel del aeródromo
Temperatura: 8 °C
Rocío: 7 °C
Humedad_relativa: 93%
Presión: 1010 hPa
METAR del 01-07-2022 a las 13:00 UTC
Para mayor información visite www.meteochile.cl
METAR SCTB 011300Z 36005KT 330V050 5000 RA OVC030 07/05 Q1017
Viento: dirección 360 grados, velocidad 5 nudos
Viento con dirección variable entre 330 y 050 grados
Visibilidad: 5000 metros
Lluvia
Nubes: Cubierto a 3000 pies sobre el nivel del aeródromo
Temperatura: 7 °C
Rocío: 5 °C
Humedad_relativa: 87%
Presión: 1017 hPa
METAR del 01-07-2022 a las 13:00 UTC
Para mayor información visite www.meteochile.cl
METAR SCRM 011300Z 04004KT 9999 BKN022 OVC038 M08/M11 Q1000 NOSIG
Viento: dirección 040 grados, velocidad 4 nudos
Visibilidad: 10 km o más
Nubes: Nublado a 2200 pies sobre el nivel del aeródromo
Nubes: Cubierto a 3800 pies sobre el nivel del aeródromo
Temperatura: -8 °C
Rocío: -11 °C
Humedad_relativa: 79%
Presión: 1000 hPa
No se esperan cambios significativos en las próximas 2 horas
METAR del 01-07-2022 a las 13:00 UTC
Para mayor información visite www.meteochile.cl
METAR SCMK 011300Z 13008KT 9999 BKN015 05/04 Q1003
Viento: dirección 130 grados, velocidad 8 nudos
Visibilidad: 10 km o más
Nubes: Nublado a 1500 pies sobre el nivel del aeródromo
Temperatura: 5 °C
Rocío: 4 °C
Humedad_relativa: 93%
Presión: 1003 hPa
METAR del 01-07-2022 a las 13:00 UTC
Para mayor información visite www.meteochile.cl
METAR SCFA 011300Z 23004KT 9999 BKN026 14/09 Q1018 NOSIG
Viento: dirección 230 grados, velocidad 4 nudos
Visibilidad: 10 km o más
Nubes: Nublado a 2600 pies sobre el nivel del aeródromo
Temperatura: 14 °C
Rocío: 9 °C
Humedad_relativa: 72%
Presión: 1018 hPa
No se esperan cambios significativos en las próximas 2 horas